Aidamar — ICSJ — position and weather

sailwx.info

Track history (hours):
 
Tides and Currents Weather Stations Pressure Air Temp Water Temp Dewpoint Dewpoint Depression Visibility Wind Speed Wind Dir Waves Ship Positions

Aidamar

Last reported at 2016-Aug-30 00:34 UTC. Time now 2016-Aug-30 01:18 UTC.
Position N 60°02' E 028°43'.

Length 253 m; draft 7.3 m.

Type: Passenger vessel. MMSI: 247312900.

Date/timePositionNaut miles runAvg speedWind from/ knotsBaromVisibWave heightAir tempDewpointWater temp
2016-Aug-30 00:34N 60°02' E 028°43'1413.9
2016-Aug-29 23:33N 60°07' E 028°17'1414.5
2016-Aug-29 22:33N 60°11' E 027°49'1514.6
2016-Aug-29 21:33N 60°03' E 027°23'1514.4
2016-Aug-29 20:30N 59°59' E 026°55'1414.7
2016-Aug-29 19:33N 59°58' E 026°27'4714.9
2016-Aug-29 16:23N 59°44' E 024°57'1113.6
2016-Aug-29 15:33N 59°36' E 024°41'9 0.9
2016-Aug-29 05:27N 59°27' E 024°46'7 7.3
2016-Aug-29 04:32N 59°30' E 024°34'1714.4
2016-Aug-29 03:22N 59°30' E 024°01'1315.4
2016-Aug-29 02:33N 59°30' E 023°36'1515.0
2016-Aug-29 01:33N 59°30' E 023°07'20615.7
2016-Aug-28 12:28N 56°56' E 018°48'3510.9
2016-Aug-28 09:16N 56°45' E 017°47'2614.8
2016-Aug-28 07:31N 56°21' E 017°29'1615.3
2016-Aug-28 06:28N 56°12' E 017°06'1515.4
2016-Aug-28 05:29N 56°03' E 016°44'1515.2
2016-Aug-28 04:29N 55°55' E 016°20'1715.2
2016-Aug-28 03:24N 55°48' E 015°54'1315.0
2016-Aug-28 02:33N 55°42' E 015°34'1615.2
2016-Aug-28 01:29N 55°33' E 015°09'1415.6
2016-Aug-28 00:33N 55°27' E 014°47'1515.0
2016-Aug-27 23:34N 55°17' E 014°27'1515.3
2016-Aug-27 22:34N 55°05' E 014°11'1414.1
2016-Aug-27 21:34N 54°58' E 013°49'1515.3
2016-Aug-27 20:34N 54°53' E 013°24'1615.5
2016-Aug-27 19:33N 54°47' E 012°58'1515.2
2016-Aug-27 18:33N 54°42' E 012°34'1515.0
2016-Aug-27 17:33N 54°31' E 012°16'1616.4
2016-Aug-27 16:33N 54°16' E 012°05'5 5.3
2016-Aug-27 15:31N 54°11' E 012°06'0 0.0
2016-Aug-27 14:31N 54°11' E 012°06'0 0.0
2016-Aug-27 13:31N 54°11' E 012°06'0 0.0
2016-Aug-27 12:33N 54°11' E 012°06'0 0.0
2016-Aug-27 11:31N 54°11' E 012°06'0 0.0
2016-Aug-27 10:27N 54°11' E 012°06'0 0.0
2016-Aug-27 09:27N 54°11' E 012°06'0 0.0
2016-Aug-27 08:03N 54°11' E 012°06'0 0.0
2016-Aug-27 07:30N 54°11' E 012°06'0 0.0
2016-Aug-27 06:30N 54°11' E 012°06'3 1.6
2016-Aug-27 04:33N 54°14' E 012°04'9 9.1
2016-Aug-27 03:34N 54°21' E 011°56'1313.0
2016-Aug-27 02:34N 54°30' E 012°12'1414.3
2016-Aug-27 01:33N 54°42' E 012°26'1514.6
2016-Aug-27 00:33N 54°49' E 012°48'1414.5
2016-Aug-26 23:33N 54°54' E 013°12'1514.3
2016-Aug-26 22:32N 54°58' E 013°37'1414.6
2016-Aug-26 21:33N 55°03' E 013°60'1414.4
2016-Aug-26 20:33N 55°13' E 014°18'1514.7
2016-Aug-26 19:34N 55°25' E 014°34'1514.6
2016-Aug-26 18:33N 55°32' E 014°56'1514.7
2016-Aug-26 17:33N 55°40' E 015°18'2114.6
2016-Aug-26 16:07N 55°51' E 015°50'1014.3
2016-Aug-26 15:24N 55°56' E 016°06'217 9.5
2016-Aug-25 16:31N 59°22' E 018°16'4 4.5
2016-Aug-25 15:33N 59°21' E 018°08'0 0.0
2016-Aug-25 14:33N 59°21' E 018°08'0 0.0
2016-Aug-25 13:31N 59°21' E 018°08'0 0.0
2016-Aug-25 12:33N 59°21' E 018°08'0 0.0
2016-Aug-25 11:33N 59°21' E 018°08'0 0.0
2016-Aug-25 10:33N 59°21' E 018°08'0 0.0
2016-Aug-25 09:32N 59°21' E 018°08'0 0.0
2016-Aug-25 08:32N 59°21' E 018°08'0 0.0
2016-Aug-25 07:33N 59°21' E 018°08'0 0.2
2016-Aug-25 06:33N 59°21' E 018°08'5310.3
2016-Aug-25 01:24N 59°48' E 019°38'5614.5
2016-Aug-24 21:33N 59°31' E 021°23'1615.8
2016-Aug-24 20:34N 59°28' E 021°54'1616.0
2016-Aug-24 19:33N 59°27' E 022°25'1817.6
2016-Aug-24 18:33N 59°34' E 022°57'1918.9
2016-Aug-24 17:33N 59°39' E 023°33'1919.1
2016-Aug-24 16:33N 59°46' E 024°09'72 4.7
2016-Aug-24 01:05N 60°01' E 026°29'1016.3
2016-Aug-24 00:26N 60°00' E 026°50'1515.7
2016-Aug-23 23:28N 60°04' E 027°20'1516.3
2016-Aug-23 22:33N 60°12' E 027°46'1616.2
2016-Aug-23 21:34N 60°08' E 028°17'1615.5
2016-Aug-23 20:33N 60°03' E 028°46'3013.2
2016-Aug-23 18:17N 59°59' E 029°46'810.6
2016-Aug-23 17:32N 59°55' E 030°00'6 5.9
2016-Aug-23 16:33N 59°57' E 030°12'0 0.0
2016-Aug-23 15:32N 59°57' E 030°12'0 0.0
2016-Aug-23 14:28N 59°57' E 030°12'0 0.0
2016-Aug-23 13:32N 59°57' E 030°12'0 0.0
2016-Aug-23 12:29N 59°57' E 030°12'0 0.0
2016-Aug-23 11:32N 59°57' E 030°12'0 0.0
2016-Aug-23 10:33N 59°57' E 030°12'0 0.0
2016-Aug-23 09:32N 59°57' E 030°12'0 0.0
2016-Aug-23 08:33N 59°57' E 030°12'0 0.0
2016-Aug-23 07:33N 59°57' E 030°12'0 0.0
2016-Aug-23 06:30N 59°57' E 030°12'0 0.0
2016-Aug-23 05:31N 59°57' E 030°12'0 0.0
2016-Aug-23 04:33N 59°57' E 030°12'4 3.8
2016-Aug-23 03:33N 59°56' E 030°04'1110.6
2016-Aug-23 02:33N 59°59' E 029°44'1211.5
2016-Aug-23 01:33N 60°02' E 029°21'1615.7
2016-Aug-23 00:33N 60°02' E 028°50'1514.9
2016-Aug-22 23:33N 60°05' E 028°21'1515.1
2016-Aug-22 22:33N 60°10' E 027°52'1815.1
2016-Aug-22 21:22N 60°03' E 027°19'1314.6
2016-Aug-22 20:28N 59°59' E 026°55'1415.0
2016-Aug-22 19:34N 59°58' E 026°27'5116.2
2016-Aug-22 16:27N 59°43' E 024°51'1111.3
2016-Aug-22 15:30N 59°33' E 024°44'6 1.9
2016-Aug-22 12:32N 59°27' E 024°46'0 0.0
2016-Aug-22 09:15N 59°27' E 024°46'0 0.0
2016-Aug-22 05:32N 59°27' E 024°46'6 6.2
2016-Aug-22 04:31N 59°30' E 024°35'1613.8
2016-Aug-22 03:23N 59°30' E 024°04'1214.6
2016-Aug-22 02:34N 59°30' E 023°40'1414.3
2016-Aug-22 01:33N 59°30' E 023°12'33614.6
2016-Aug-21 02:33N 55°41' E 015°33'1515.3
2016-Aug-21 01:34N 55°34' E 015°09'1515.4
2016-Aug-21 00:33N 55°27' E 014°45'1514.9
2016-Aug-20 23:33N 55°16' E 014°27'1515.5
2016-Aug-20 22:33N 55°04' E 014°10'1515.0
2016-Aug-20 21:34N 54°57' E 013°46'1515.5
2016-Aug-20 20:34N 54°52' E 013°21'1615.8
2016-Aug-20 19:33N 54°48' E 012°55'1515.4
2016-Aug-20 18:33N 54°40' E 012°31'1414.3
2016-Aug-20 17:34N 54°29' E 012°15'1515.0
2016-Aug-20 16:34N 54°16' E 012°05'5 5.0
2016-Aug-20 15:31N 54°11' E 012°06'0 0.0
2016-Aug-20 14:28N 54°11' E 012°06'0 0.0
2016-Aug-20 13:31N 54°11' E 012°06'0 0.0
2016-Aug-20 12:13N 54°11' E 012°06'0 0.0
2016-Aug-20 11:31N 54°11' E 012°06'0 0.0
2016-Aug-20 09:25N 54°11' E 012°06'0 0.0
2016-Aug-20 08:28N 54°11' E 012°06'0 0.0
2016-Aug-20 07:31N 54°11' E 012°06'0 0.0
2016-Aug-20 06:33N 54°11' E 012°06'0 0.0
2016-Aug-20 05:34N 54°11' E 012°06'3 2.7
2016-Aug-20 04:33N 54°13' E 012°04'1312.7
2016-Aug-20 03:34N 54°24' E 011°55'1212.1
2016-Aug-20 02:33N 54°31' E 012°12'1313.3
2016-Aug-20 01:33N 54°41' E 012°27'  
Track history (hours):
 
Tides and Currents Weather Stations Pressure Air Temp Water Temp Dewpoint Dewpoint Depression Visibility Wind Speed Wind Dir Waves Ship Positions

Aidamar

Last reported at 2016-Aug-30 00:34 UTC. Time now 2016-Aug-30 01:18 UTC.
Position N 60°02' E 028°43'.

Length 253 m; draft 7.3 m.

Type: Passenger vessel. MMSI: 247312900.

Date/timePositionNaut miles runAvg speedWind from/ knotsBaromVisibWave heightAir tempDewpointWater temp
2016-Aug-30 00:34N 60°02' E 028°43'1413.9
2016-Aug-29 23:33N 60°07' E 028°17'1414.5
2016-Aug-29 22:33N 60°11' E 027°49'1514.6
2016-Aug-29 21:33N 60°03' E 027°23'1514.4
2016-Aug-29 20:30N 59°59' E 026°55'1414.7
2016-Aug-29 19:33N 59°58' E 026°27'4714.9
2016-Aug-29 16:23N 59°44' E 024°57'1113.6
2016-Aug-29 15:33N 59°36' E 024°41'9 0.9
2016-Aug-29 05:27N 59°27' E 024°46'7 7.3
2016-Aug-29 04:32N 59°30' E 024°34'1714.4
2016-Aug-29 03:22N 59°30' E 024°01'1315.4
2016-Aug-29 02:33N 59°30' E 023°36'1515.0
2016-Aug-29 01:33N 59°30' E 023°07'20615.7
2016-Aug-28 12:28N 56°56' E 018°48'3510.9
2016-Aug-28 09:16N 56°45' E 017°47'2614.8
2016-Aug-28 07:31N 56°21' E 017°29'1615.3
2016-Aug-28 06:28N 56°12' E 017°06'1515.4
2016-Aug-28 05:29N 56°03' E 016°44'1515.2
2016-Aug-28 04:29N 55°55' E 016°20'1715.2
2016-Aug-28 03:24N 55°48' E 015°54'1315.0
2016-Aug-28 02:33N 55°42' E 015°34'1615.2
2016-Aug-28 01:29N 55°33' E 015°09'1415.6
2016-Aug-28 00:33N 55°27' E 014°47'1515.0
2016-Aug-27 23:34N 55°17' E 014°27'1515.3
2016-Aug-27 22:34N 55°05' E 014°11'1414.1
2016-Aug-27 21:34N 54°58' E 013°49'1515.3
2016-Aug-27 20:34N 54°53' E 013°24'1615.5
2016-Aug-27 19:33N 54°47' E 012°58'1515.2
2016-Aug-27 18:33N 54°42' E 012°34'1515.0
2016-Aug-27 17:33N 54°31' E 012°16'1616.4
2016-Aug-27 16:33N 54°16' E 012°05'5 5.3
2016-Aug-27 15:31N 54°11' E 012°06'0 0.0
2016-Aug-27 14:31N 54°11' E 012°06'0 0.0
2016-Aug-27 13:31N 54°11' E 012°06'0 0.0
2016-Aug-27 12:33N 54°11' E 012°06'0 0.0
2016-Aug-27 11:31N 54°11' E 012°06'0 0.0
2016-Aug-27 10:27N 54°11' E 012°06'0 0.0
2016-Aug-27 09:27N 54°11' E 012°06'0 0.0
2016-Aug-27 08:03N 54°11' E 012°06'0 0.0
2016-Aug-27 07:30N 54°11' E 012°06'0 0.0
2016-Aug-27 06:30N 54°11' E 012°06'3 1.6
2016-Aug-27 04:33N 54°14' E 012°04'9 9.1
2016-Aug-27 03:34N 54°21' E 011°56'1313.0
2016-Aug-27 02:34N 54°30' E 012°12'1414.3
2016-Aug-27 01:33N 54°42' E 012°26'1514.6
2016-Aug-27 00:33N 54°49' E 012°48'1414.5
2016-Aug-26 23:33N 54°54' E 013°12'1514.3
2016-Aug-26 22:32N 54°58' E 013°37'1414.6
2016-Aug-26 21:33N 55°03' E 013°60'1414.4
2016-Aug-26 20:33N 55°13' E 014°18'1514.7
2016-Aug-26 19:34N 55°25' E 014°34'1514.6
2016-Aug-26 18:33N 55°32' E 014°56'1514.7
2016-Aug-26 17:33N 55°40' E 015°18'2114.6
2016-Aug-26 16:07N 55°51' E 015°50'1014.3
2016-Aug-26 15:24N 55°56' E 016°06'217 9.5
2016-Aug-25 16:31N 59°22' E 018°16'4 4.5
2016-Aug-25 15:33N 59°21' E 018°08'0 0.0
2016-Aug-25 14:33N 59°21' E 018°08'0 0.0
2016-Aug-25 13:31N 59°21' E 018°08'0 0.0
2016-Aug-25 12:33N 59°21' E 018°08'0 0.0
2016-Aug-25 11:33N 59°21' E 018°08'0 0.0
2016-Aug-25 10:33N 59°21' E 018°08'0 0.0
2016-Aug-25 09:32N 59°21' E 018°08'0 0.0
2016-Aug-25 08:32N 59°21' E 018°08'0 0.0
2016-Aug-25 07:33N 59°21' E 018°08'0 0.2
2016-Aug-25 06:33N 59°21' E 018°08'5310.3
2016-Aug-25 01:24N 59°48' E 019°38'5614.5
2016-Aug-24 21:33N 59°31' E 021°23'1615.8
2016-Aug-24 20:34N 59°28' E 021°54'1616.0
2016-Aug-24 19:33N 59°27' E 022°25'1817.6
2016-Aug-24 18:33N 59°34' E 022°57'1918.9
2016-Aug-24 17:33N 59°39' E 023°33'1919.1
2016-Aug-24 16:33N 59°46' E 024°09'72 4.7
2016-Aug-24 01:05N 60°01' E 026°29'1016.3
2016-Aug-24 00:26N 60°00' E 026°50'1515.7
2016-Aug-23 23:28N 60°04' E 027°20'1516.3
2016-Aug-23 22:33N 60°12' E 027°46'1616.2
2016-Aug-23 21:34N 60°08' E 028°17'1615.5
2016-Aug-23 20:33N 60°03' E 028°46'3013.2
2016-Aug-23 18:17N 59°59' E 029°46'810.6
2016-Aug-23 17:32N 59°55' E 030°00'6 5.9
2016-Aug-23 16:33N 59°57' E 030°12'0 0.0
2016-Aug-23 15:32N 59°57' E 030°12'0 0.0
2016-Aug-23 14:28N 59°57' E 030°12'0 0.0
2016-Aug-23 13:32N 59°57' E 030°12'0 0.0
2016-Aug-23 12:29N 59°57' E 030°12'0 0.0
2016-Aug-23 11:32N 59°57' E 030°12'0 0.0
2016-Aug-23 10:33N 59°57' E 030°12'0 0.0
2016-Aug-23 09:32N 59°57' E 030°12'0 0.0
2016-Aug-23 08:33N 59°57' E 030°12'0 0.0
2016-Aug-23 07:33N 59°57' E 030°12'0 0.0
2016-Aug-23 06:30N 59°57' E 030°12'0 0.0
2016-Aug-23 05:31N 59°57' E 030°12'0 0.0
2016-Aug-23 04:33N 59°57' E 030°12'4 3.8
2016-Aug-23 03:33N 59°56' E 030°04'1110.6
2016-Aug-23 02:33N 59°59' E 029°44'1211.5
2016-Aug-23 01:33N 60°02' E 029°21'1615.7
2016-Aug-23 00:33N 60°02' E 028°50'1514.9
2016-Aug-22 23:33N 60°05' E 028°21'1515.1
2016-Aug-22 22:33N 60°10' E 027°52'1815.1
2016-Aug-22 21:22N 60°03' E 027°19'1314.6
2016-Aug-22 20:28N 59°59' E 026°55'1415.0
2016-Aug-22 19:34N 59°58' E 026°27'5116.2
2016-Aug-22 16:27N 59°43' E 024°51'1111.3
2016-Aug-22 15:30N 59°33' E 024°44'6 1.9
2016-Aug-22 12:32N 59°27' E 024°46'0 0.0
2016-Aug-22 09:15N 59°27' E 024°46'0 0.0
2016-Aug-22 05:32N 59°27' E 024°46'6 6.2
2016-Aug-22 04:31N 59°30' E 024°35'1613.8
2016-Aug-22 03:23N 59°30' E 024°04'1214.6
2016-Aug-22 02:34N 59°30' E 023°40'1414.3
2016-Aug-22 01:33N 59°30' E 023°12'33614.6
2016-Aug-21 02:33N 55°41' E 015°33'1515.3
2016-Aug-21 01:34N 55°34' E 015°09'1515.4
2016-Aug-21 00:33N 55°27' E 014°45'1514.9
2016-Aug-20 23:33N 55°16' E 014°27'1515.5
2016-Aug-20 22:33N 55°04' E 014°10'1515.0
2016-Aug-20 21:34N 54°57' E 013°46'1515.5
2016-Aug-20 20:34N 54°52' E 013°21'1615.8
2016-Aug-20 19:33N 54°48' E 012°55'1515.4
2016-Aug-20 18:33N 54°40' E 012°31'1414.3
2016-Aug-20 17:34N 54°29' E 012°15'1515.0
2016-Aug-20 16:34N 54°16' E 012°05'5 5.0
2016-Aug-20 15:31N 54°11' E 012°06'0 0.0
2016-Aug-20 14:28N 54°11' E 012°06'0 0.0
2016-Aug-20 13:31N 54°11' E 012°06'0 0.0
2016-Aug-20 12:13N 54°11' E 012°06'0 0.0
2016-Aug-20 11:31N 54°11' E 012°06'0 0.0
2016-Aug-20 09:25N 54°11' E 012°06'0 0.0
2016-Aug-20 08:28N 54°11' E 012°06'0 0.0
2016-Aug-20 07:31N 54°11' E 012°06'0 0.0
2016-Aug-20 06:33N 54°11' E 012°06'0 0.0
2016-Aug-20 05:34N 54°11' E 012°06'3 2.7
2016-Aug-20 04:33N 54°13' E 012°04'1312.7
2016-Aug-20 03:34N 54°24' E 011°55'1212.1
2016-Aug-20 02:33N 54°31' E 012°12'1313.3
2016-Aug-20 01:33N 54°41' E 012°27'  

Dump ship's entire track history